createdAt,value
2018-03-08T00:01:22.550Z,6.03
2018-03-08T00:03:50.197Z,6.77
2018-03-08T00:06:17.797Z,6.50
2018-03-08T00:08:45.444Z,6.33
2018-03-08T00:11:13.047Z,6.53
2018-03-08T00:13:40.684Z,5.70
2018-03-08T00:16:08.298Z,5.90
2018-03-08T00:18:35.937Z,6.40
2018-03-08T00:21:03.527Z,5.40
2018-03-08T00:23:31.190Z,5.30
2018-03-08T00:25:58.787Z,5.53
2018-03-08T00:28:26.435Z,5.80
2018-03-08T00:30:54.040Z,6.70
2018-03-08T00:33:21.709Z,5.70
2018-03-08T00:35:49.309Z,6.37
2018-03-08T00:38:17.031Z,6.47
2018-03-08T00:40:44.623Z,6.60
2018-03-08T00:43:12.286Z,6.70
2018-03-08T00:45:39.880Z,6.50
2018-03-08T00:48:07.537Z,7.47
2018-03-08T00:50:35.136Z,6.57
2018-03-08T00:53:02.772Z,7.37
2018-03-08T00:55:30.364Z,6.37
2018-03-08T00:57:58.009Z,6.67
2018-03-08T01:00:25.648Z,7.00
2018-03-08T01:02:53.287Z,7.03
2018-03-08T01:05:20.918Z,5.73
2018-03-08T01:07:48.561Z,6.53
2018-03-08T01:10:16.154Z,7.10
2018-03-08T01:12:43.797Z,6.90
2018-03-08T01:15:11.410Z,6.83
2018-03-08T01:17:39.065Z,7.03
2018-03-08T01:20:06.704Z,7.00
2018-03-08T01:22:34.340Z,6.40
2018-03-08T01:25:01.948Z,6.50
2018-03-08T01:27:29.596Z,6.80
2018-03-08T01:29:57.200Z,7.17
2018-03-08T01:32:24.837Z,7.40
2018-03-08T01:34:52.437Z,6.93
2018-03-08T01:37:20.097Z,6.40
2018-03-08T01:39:47.697Z,7.37
2018-03-08T01:42:15.350Z,7.10
2018-03-08T01:44:42.961Z,6.60
2018-03-08T01:47:10.599Z,6.60
2018-03-08T01:49:38.248Z,6.97
2018-03-08T01:52:11.884Z,8.10
2018-03-08T01:54:39.526Z,6.67
2018-03-08T01:57:07.128Z,8.40
2018-03-08T01:59:34.796Z,7.10
2018-03-08T02:02:02.405Z,7.23
2018-03-08T02:04:30.045Z,6.90
2018-03-08T02:06:57.671Z,6.80
2018-03-08T02:09:25.322Z,7.70
2018-03-08T02:11:52.919Z,6.80
2018-03-08T02:14:20.568Z,6.90
2018-03-08T02:16:48.176Z,7.70
2018-03-08T02:19:15.864Z,6.90
2018-03-08T02:21:43.463Z,7.63
2018-03-08T02:24:11.115Z,7.00
2018-03-08T02:26:38.726Z,7.40
2018-03-08T02:29:06.362Z,7.43
2018-03-08T02:31:33.964Z,7.40
2018-03-08T02:34:01.609Z,7.73
2018-03-08T02:36:29.243Z,8.03
2018-03-08T02:38:56.878Z,8.03
2018-03-08T02:41:24.480Z,8.33
2018-03-08T02:43:52.116Z,8.33
2018-03-08T02:46:19.720Z,7.17
2018-03-08T02:48:47.353Z,8.13
2018-03-08T02:51:14.958Z,8.83
2018-03-08T02:53:42.656Z,8.47
2018-03-08T02:56:10.257Z,8.80
2018-03-08T02:58:37.901Z,8.50
2018-03-08T03:01:05.492Z,8.23
2018-03-08T03:03:33.147Z,8.23
2018-03-08T03:06:00.750Z,8.80
2018-03-08T03:08:28.405Z,8.13
2018-03-08T03:10:56.006Z,8.40
2018-03-08T03:13:23.657Z,8.10
2018-03-08T03:15:51.268Z,7.43
2018-03-08T03:18:18.929Z,9.07
2018-03-08T03:20:46.527Z,8.13
2018-03-08T03:23:14.180Z,8.47
2018-03-08T03:25:41.784Z,8.80
2018-03-08T03:28:09.439Z,8.10
2018-03-08T03:30:37.044Z,8.50
2018-03-08T03:33:04.689Z,7.73
2018-03-08T03:35:32.301Z,7.10
2018-03-08T03:37:59.960Z,9.93
2018-03-08T03:40:27.568Z,8.63
2018-03-08T03:42:55.287Z,8.77
2018-03-08T03:45:22.893Z,8.73
2018-03-08T03:47:50.538Z,7.80
2018-03-08T03:50:18.144Z,9.37
2018-03-08T03:52:45.795Z,8.37
2018-03-08T03:55:13.445Z,8.87
2018-03-08T03:57:41.051Z,8.77
2018-03-08T04:00:08.686Z,7.90
2018-03-08T04:02:36.285Z,8.27
2018-03-08T04:05:03.974Z,8.67
2018-03-08T04:07:31.588Z,7.60
2018-03-08T04:09:59.228Z,7.93
2018-03-08T04:12:26.880Z,7.93
2018-03-08T04:14:54.541Z,8.20
2018-03-08T04:17:22.157Z,8.63
2018-03-08T04:19:49.858Z,8.80
2018-03-08T04:22:17.464Z,8.50
2018-03-08T04:24:45.145Z,9.10
2018-03-08T04:27:12.766Z,8.77
2018-03-08T04:29:40.418Z,8.30
2018-03-08T04:32:08.066Z,9.53
2018-03-08T04:34:35.705Z,8.33
2018-03-08T04:37:03.307Z,9.43
2018-03-08T04:39:30.956Z,8.27
2018-03-08T04:41:58.578Z,10.10
2018-03-08T04:44:26.225Z,9.67
2018-03-08T04:46:53.828Z,9.20
2018-03-08T04:49:21.471Z,9.30
2018-03-08T04:51:49.075Z,9.07
2018-03-08T04:54:16.810Z,9.20
2018-03-08T04:56:44.406Z,8.97
2018-03-08T04:59:12.036Z,7.70
2018-03-08T05:01:39.636Z,8.47
2018-03-08T05:04:07.276Z,7.97
2018-03-08T05:06:34.891Z,9.40
2018-03-08T05:09:02.548Z,9.30
2018-03-08T05:11:30.152Z,9.60
2018-03-08T05:13:57.791Z,9.03
2018-03-08T05:16:25.524Z,8.80
2018-03-08T05:18:53.196Z,9.40
2018-03-08T05:21:20.797Z,10.33
2018-03-08T05:23:48.497Z,8.70
2018-03-08T05:26:16.116Z,7.60
2018-03-08T05:28:43.763Z,8.30
2018-03-08T05:31:11.397Z,7.80
2018-03-08T05:33:39.088Z,7.23
2018-03-08T05:36:06.693Z,8.13
2018-03-08T05:38:34.352Z,8.60
2018-03-08T05:41:01.963Z,8.67
2018-03-08T05:43:29.607Z,8.10
2018-03-08T05:45:57.201Z,8.63
2018-03-08T05:48:24.860Z,9.57
2018-03-08T05:50:52.480Z,9.30
2018-03-08T05:53:20.131Z,8.83
2018-03-08T05:55:47.736Z,9.40
2018-03-08T05:58:15.389Z,8.67
2018-03-08T06:00:42.988Z,9.63
2018-03-08T06:03:10.641Z,9.70
2018-03-08T06:05:38.288Z,9.70
2018-03-08T06:08:05.884Z,9.40
2018-03-08T06:10:33.529Z,8.97
2018-03-08T06:13:01.156Z,9.50
2018-03-08T06:15:28.803Z,10.47
2018-03-08T06:17:56.433Z,9.70
2018-03-08T06:20:24.077Z,10.23
2018-03-08T06:22:51.688Z,9.73
2018-03-08T06:25:19.346Z,9.90
2018-03-08T06:27:46.979Z,11.00
2018-03-08T06:30:14.629Z,10.60
2018-03-08T06:32:42.240Z,10.93
2018-03-08T06:35:10.040Z,11.47
2018-03-08T06:37:37.648Z,9.90
2018-03-08T06:40:05.306Z,10.70
2018-03-08T06:42:32.945Z,10.37
2018-03-08T06:45:00.630Z,10.47
2018-03-08T06:47:28.250Z,10.50
2018-03-08T06:49:55.928Z,10.27
2018-03-08T06:52:23.529Z,11.10
2018-03-08T06:54:51.186Z,10.67
2018-03-08T06:57:18.840Z,10.00
2018-03-08T06:59:46.488Z,10.43
2018-03-08T07:02:14.093Z,11.53
2018-03-08T07:04:41.805Z,11.37
2018-03-08T07:07:09.425Z,11.10
2018-03-08T07:09:37.105Z,10.77
2018-03-08T07:12:04.721Z,11.30
2018-03-08T07:14:32.368Z,11.40
2018-03-08T07:16:59.981Z,12.37
2018-03-08T07:19:27.647Z,12.63
2018-03-08T07:21:55.260Z,40.40
2018-03-08T07:24:22.908Z,43.90
2018-03-08T07:26:50.526Z,20.40
2018-03-08T07:29:18.186Z,11.40
2018-03-08T07:31:45.792Z,14.37
2018-03-08T07:34:13.456Z,36.27
2018-03-08T07:36:41.128Z,17.20
2018-03-08T07:39:08.785Z,21.13
2018-03-08T07:41:36.402Z,14.30
2018-03-08T07:44:04.070Z,12.30
2018-03-08T07:46:31.689Z,12.80
2018-03-08T07:48:59.308Z,12.37
2018-03-08T07:51:26.962Z,14.30
2018-03-08T07:53:54.585Z,13.07
2018-03-08T07:56:22.220Z,14.27
2018-03-08T07:58:49.846Z,13.37
2018-03-08T08:01:17.493Z,12.90
2018-03-08T08:03:45.101Z,15.17
2018-03-08T08:06:24.499Z,14.17
2018-03-08T08:09:09.787Z,13.20
2018-03-08T08:11:37.448Z,12.80
2018-03-08T08:14:05.075Z,13.40
2018-03-08T08:16:32.742Z,12.27
2018-03-08T08:19:00.381Z,16.83
2018-03-08T08:21:28.254Z,10.07
2018-03-08T08:23:56.189Z,12.30
2018-03-08T08:26:23.847Z,29.90
2018-03-08T08:28:51.470Z,11.70
2018-03-08T08:31:19.299Z,9.60
2018-03-08T08:33:46.910Z,9.23
2018-03-08T08:36:14.565Z,9.70
2018-03-08T08:38:42.194Z,54.80
2018-03-08T08:41:09.810Z,21.63
2018-03-08T08:43:37.460Z,13.57
2018-03-08T08:46:05.085Z,13.33
2018-03-08T08:48:32.732Z,10.83
2018-03-08T08:51:00.348Z,10.57
2018-03-08T08:53:28.074Z,9.30
2018-03-08T08:55:55.696Z,9.10
2018-03-08T08:58:23.359Z,10.17
2018-03-08T09:00:50.974Z,9.00
2018-03-08T09:03:18.620Z,9.30
2018-03-08T09:05:46.236Z,9.60
2018-03-08T09:08:13.877Z,9.37
2018-03-08T09:10:41.496Z,9.13
2018-03-08T09:13:09.141Z,9.30
2018-03-08T09:15:36.750Z,9.83
2018-03-08T09:18:04.404Z,10.27
2018-03-08T09:20:32.018Z,9.90
2018-03-08T09:22:59.677Z,9.20
2018-03-08T09:25:27.270Z,7.97
2018-03-08T09:27:54.927Z,9.17
2018-03-08T09:30:22.536Z,10.50
2018-03-08T09:32:50.185Z,10.20
2018-03-08T09:35:17.818Z,8.60
2018-03-08T09:37:45.465Z,7.87
2018-03-08T09:40:13.077Z,8.00
2018-03-08T09:42:40.683Z,17.47
2018-03-08T09:45:08.343Z,9.80
2018-03-08T09:47:35.964Z,10.17
2018-03-08T09:50:03.623Z,8.43
2018-03-08T09:52:31.244Z,10.73
2018-03-08T09:54:58.928Z,11.50
2018-03-08T09:57:26.538Z,10.07
2018-03-08T09:59:54.908Z,9.10
2018-03-08T10:02:22.642Z,9.43
2018-03-08T10:04:50.314Z,9.30
2018-03-08T10:07:18.000Z,8.80
2018-03-08T10:09:45.675Z,8.20
2018-03-08T10:12:13.289Z,9.90
2018-03-08T10:14:40.951Z,8.53
2018-03-08T10:17:08.568Z,9.60
2018-03-08T10:19:36.225Z,8.30
2018-03-08T10:22:03.849Z,10.63
2018-03-08T10:24:31.577Z,8.03
2018-03-08T10:26:59.259Z,5.17
2018-03-08T10:29:26.885Z,7.50
2018-03-08T10:31:54.537Z,6.40
2018-03-08T10:34:22.214Z,5.43
2018-03-08T10:36:50.035Z,5.70
2018-03-08T10:39:28.255Z,5.90
2018-03-08T10:41:45.775Z,6.70
2018-03-08T10:44:13.440Z,5.77
2018-03-08T10:46:41.137Z,7.10
2018-03-08T10:49:08.841Z,5.60
2018-03-08T10:51:36.988Z,5.20
2018-03-08T10:54:04.697Z,5.50
2018-03-08T10:56:32.443Z,4.63
2018-03-08T10:59:00.256Z,4.87
2018-03-08T11:01:28.031Z,4.60
2018-03-08T11:03:55.796Z,4.70
2018-03-08T11:06:29.395Z,3.67
2018-03-08T11:08:57.159Z,3.60
2018-03-08T11:11:25.130Z,4.03
2018-03-08T11:13:52.893Z,3.93
2018-03-08T11:16:20.612Z,2.80
2018-03-08T11:18:48.422Z,3.10
2018-03-08T11:21:16.393Z,3.40
2018-03-08T11:23:44.155Z,2.87
2018-03-08T11:26:11.984Z,3.40
2018-03-08T11:28:39.785Z,2.67
2018-03-08T11:31:07.550Z,4.17
2018-03-08T11:33:35.297Z,3.70
2018-03-08T11:36:07.916Z,2.83
2018-03-08T11:38:35.522Z,2.53
2018-03-08T11:41:03.173Z,2.63
2018-03-08T11:43:30.800Z,2.87
2018-03-08T11:45:58.452Z,2.90
2018-03-08T11:48:26.051Z,2.50
2018-03-08T11:50:53.692Z,2.43
2018-03-08T11:53:21.309Z,2.80
2018-03-08T11:55:48.970Z,2.23
2018-03-08T11:58:16.588Z,2.90
2018-03-08T12:00:44.240Z,2.17
2018-03-08T12:03:11.863Z,1.80
2018-03-08T12:05:39.568Z,2.07
2018-03-08T12:08:07.189Z,2.30
2018-03-08T12:10:34.881Z,2.17
2018-03-08T12:13:02.593Z,2.10
2018-03-08T12:15:30.274Z,2.37
2018-03-08T12:17:58.011Z,1.97
2018-03-08T12:20:25.807Z,1.87
2018-03-08T12:22:53.507Z,2.40
2018-03-08T12:25:21.324Z,2.10
2018-03-08T12:27:49.096Z,2.97
2018-03-08T12:30:16.758Z,2.00
2018-03-08T12:32:44.525Z,1.80
2018-03-08T12:35:12.344Z,2.50
2018-03-08T12:37:40.050Z,2.07
2018-03-08T12:40:07.819Z,2.40
2018-03-08T12:42:35.544Z,2.50
2018-03-08T12:45:03.350Z,2.20
2018-03-08T12:47:31.109Z,1.93
2018-03-08T12:49:58.779Z,1.67
2018-03-08T12:52:26.604Z,2.10
2018-03-08T12:54:54.503Z,1.60
2018-03-08T12:57:22.270Z,1.80
2018-03-08T12:59:50.032Z,1.90
2018-03-08T13:02:17.800Z,2.07
2018-03-08T13:04:45.508Z,1.57
2018-03-08T13:07:13.324Z,2.20
2018-03-08T13:09:41.088Z,2.23
2018-03-08T13:12:08.853Z,1.63
2018-03-08T13:14:36.514Z,2.10
2018-03-08T13:17:05.164Z,1.90
2018-03-08T13:19:32.827Z,1.73
2018-03-08T13:22:00.444Z,1.53
2018-03-08T13:24:28.065Z,1.63
2018-03-08T13:26:55.713Z,1.90
2018-03-08T13:29:23.336Z,2.23
2018-03-08T13:31:50.983Z,1.80
2018-03-08T13:34:18.630Z,1.90
2018-03-08T13:39:19.097Z,2.30
2018-03-08T13:41:46.760Z,2.30
2018-03-08T13:44:14.390Z,2.37
2018-03-08T13:46:41.991Z,2.10
2018-03-08T13:49:21.662Z,2.33
2018-03-08T13:51:49.332Z,2.20
2018-03-08T13:54:16.981Z,2.17
2018-03-08T13:56:44.601Z,2.23
2018-03-08T13:59:12.249Z,2.20
2018-03-08T14:01:39.913Z,2.37
2018-03-08T14:04:07.560Z,1.70
2018-03-08T14:06:35.168Z,2.03
2018-03-08T14:09:02.809Z,1.50
2018-03-08T14:11:30.411Z,1.63
2018-03-08T14:13:58.092Z,1.97
2018-03-08T14:16:25.752Z,1.60
2018-03-08T14:18:53.412Z,1.70
2018-03-08T14:21:21.036Z,1.13
2018-03-08T14:23:48.676Z,1.57
2018-03-08T14:26:16.270Z,1.50
2018-03-08T14:28:43.920Z,0.80
2018-03-08T14:31:11.548Z,1.30
2018-03-08T14:33:39.188Z,1.30
2018-03-08T14:36:06.813Z,1.53
2018-03-08T14:38:34.474Z,1.70
2018-03-08T14:41:02.104Z,1.60
2018-03-08T14:43:29.712Z,1.90
2018-03-08T14:45:57.356Z,1.00
2018-03-08T14:48:25.012Z,1.90
2018-03-08T14:50:52.719Z,1.50
2018-03-08T14:53:20.350Z,1.33
2018-03-08T14:55:48.005Z,1.40
2018-03-08T14:58:15.610Z,1.60
2018-03-08T15:00:43.270Z,1.50
2018-03-08T15:03:10.892Z,1.53
2018-03-08T15:05:38.545Z,1.33
2018-03-08T15:08:06.153Z,1.50
2018-03-08T15:10:33.815Z,1.00
2018-03-08T15:13:01.421Z,0.90
2018-03-08T15:15:29.071Z,1.00
2018-03-08T15:17:56.688Z,1.30
2018-03-08T15:20:24.361Z,1.10
2018-03-08T15:22:52.003Z,1.30
2018-03-08T15:25:19.660Z,1.50
2018-03-08T15:27:47.310Z,1.77
2018-03-08T15:30:14.925Z,1.60
2018-03-08T15:32:42.577Z,1.17
2018-03-08T15:35:10.193Z,2.77
2018-03-08T15:37:37.849Z,2.80
2018-03-08T15:40:05.538Z,4.40
2018-03-08T15:42:33.165Z,5.67
2018-03-08T15:45:00.785Z,13.27
2018-03-08T15:47:28.448Z,1.50
2018-03-08T15:49:56.060Z,5.47
2018-03-08T15:52:23.707Z,3.50
2018-03-08T15:54:51.320Z,6.83
2018-03-08T15:57:19.022Z,47.20
2018-03-08T15:59:46.884Z,19.57
2018-03-08T16:02:16.457Z,14.03
2018-03-08T16:04:44.255Z,2.30
2018-03-08T16:07:31.496Z,7.10
2018-03-08T16:13:01.351Z,4.10
2018-03-08T16:15:29.098Z,1.63
2018-03-08T16:17:56.875Z,2.50
2018-03-08T16:20:24.601Z,1.37
2018-03-08T16:22:52.449Z,4.33
2018-03-08T16:25:20.401Z,3.37
2018-03-08T16:27:48.291Z,5.40
2018-03-08T16:30:16.633Z,1.30
2018-03-08T16:32:44.533Z,1.60
2018-03-08T16:35:12.409Z,1.40
2018-03-08T16:37:40.596Z,1.47
2018-03-08T16:40:08.444Z,1.10
2018-03-08T16:42:36.302Z,3.70
2018-03-08T16:45:04.272Z,1.37
2018-03-08T16:47:32.140Z,1.80
2018-03-08T16:49:59.932Z,1.60
2018-03-08T16:52:27.725Z,2.80
2018-03-08T16:54:55.562Z,1.60
2018-03-08T16:57:23.440Z,1.13
2018-03-08T16:59:51.371Z,1.17
2018-03-08T17:02:19.333Z,1.10
2018-03-08T17:04:47.311Z,1.40
2018-03-08T17:07:15.177Z,1.30
2018-03-08T17:09:43.160Z,1.20
2018-03-08T17:12:11.122Z,1.30
2018-03-08T17:14:38.981Z,1.30
2018-03-08T17:17:06.882Z,1.30
2018-03-08T17:19:34.705Z,1.27
2018-03-08T17:22:02.468Z,1.27
2018-03-08T17:24:30.236Z,1.23
2018-03-08T17:26:57.999Z,1.20
2018-03-08T17:29:25.716Z,1.77
2018-03-08T17:31:53.529Z,1.20
2018-03-08T17:34:21.379Z,1.80
2018-03-08T17:36:49.157Z,1.90
2018-03-08T17:39:16.820Z,1.60
2018-03-08T17:41:44.585Z,1.50
2018-03-08T17:44:12.349Z,1.67
2018-03-08T17:46:40.110Z,1.40
2018-03-08T17:49:07.876Z,1.90
2018-03-08T17:51:35.745Z,1.00
2018-03-08T17:54:03.549Z,1.30
2018-03-08T17:56:31.374Z,1.00
2018-03-08T17:58:59.141Z,1.03
2018-03-08T18:01:26.893Z,1.00
2018-03-08T18:03:54.564Z,1.10
2018-03-08T18:06:22.280Z,0.87
2018-03-08T18:08:50.092Z,0.70
2018-03-08T18:11:17.819Z,1.50
2018-03-08T18:13:45.621Z,1.40
2018-03-08T18:16:13.390Z,0.60
2018-03-08T18:18:41.353Z,1.30
2018-03-08T18:21:09.014Z,1.00
2018-03-08T18:23:36.780Z,0.80
2018-03-08T18:26:04.484Z,1.00
2018-03-08T18:28:32.206Z,0.97
2018-03-08T18:31:00.077Z,0.90
2018-03-08T18:33:27.838Z,1.13
2018-03-08T18:35:55.556Z,0.73
2018-03-08T18:38:23.365Z,0.77
2018-03-08T18:40:51.130Z,2.53
2018-03-08T18:43:18.954Z,0.77
2018-03-08T18:45:46.659Z,0.50
2018-03-08T18:48:14.422Z,0.70
2018-03-08T18:50:42.243Z,0.60
2018-03-08T18:53:10.055Z,1.00
2018-03-08T18:55:37.820Z,1.30
2018-03-08T18:58:17.358Z,2.10
2018-03-08T19:00:45.123Z,1.83
2018-03-08T19:03:12.903Z,2.87
2018-03-08T19:05:40.548Z,1.30
2018-03-08T19:08:08.317Z,2.10
2018-03-08T19:10:35.976Z,4.10
2018-03-08T19:13:03.843Z,3.70
2018-03-08T19:15:31.556Z,1.43
2018-03-08T19:17:59.384Z,1.20
2018-03-08T19:20:27.138Z,3.03
2018-03-08T19:22:54.959Z,1.80
2018-03-08T19:25:22.844Z,1.40
2018-03-08T19:27:50.631Z,3.57
2018-03-08T19:30:18.319Z,1.37
2018-03-08T19:32:46.158Z,1.00
2018-03-08T19:35:13.923Z,1.00
2018-03-08T19:37:41.726Z,1.20
2018-03-08T19:40:09.393Z,1.17
2018-03-08T19:42:37.215Z,1.00
2018-03-08T19:45:04.833Z,4.50
2018-03-08T19:47:32.580Z,2.40
2018-03-08T19:50:00.196Z,1.30
2018-03-08T19:52:27.851Z,2.47
2018-03-08T19:54:55.454Z,0.80
2018-03-08T19:57:23.141Z,1.60
2018-03-08T19:59:50.740Z,2.73
2018-03-08T20:02:18.449Z,2.87
2018-03-08T20:04:46.072Z,2.53
2018-03-08T20:07:13.800Z,0.90
2018-03-08T20:09:41.450Z,1.60
2018-03-08T20:12:09.065Z,1.47
2018-03-08T20:14:36.713Z,1.97
2018-03-08T20:17:04.313Z,1.60
2018-03-08T20:19:31.958Z,1.70
2018-03-08T20:21:59.610Z,1.20
2018-03-08T20:24:27.289Z,0.90
2018-03-08T20:26:54.961Z,0.70
2018-03-08T20:29:22.619Z,0.77
2018-03-08T20:31:50.228Z,0.67
2018-03-08T20:34:17.881Z,0.70
2018-03-08T20:36:45.504Z,0.60
2018-03-08T20:39:13.169Z,1.00
2018-03-08T20:41:40.796Z,0.70
2018-03-08T20:44:08.438Z,0.83
2018-03-08T20:46:36.028Z,1.00
2018-03-08T20:49:03.680Z,0.90
2018-03-08T20:51:31.287Z,0.90
2018-03-08T20:53:58.945Z,0.87
2018-03-08T20:56:26.550Z,0.90
2018-03-08T20:58:54.212Z,0.80
2018-03-08T21:01:21.823Z,1.20
2018-03-08T21:03:49.474Z,0.70
2018-03-08T21:06:17.094Z,0.87
2018-03-08T21:08:44.748Z,1.27
2018-03-08T21:11:12.364Z,0.70
2018-03-08T21:13:40.016Z,1.27
2018-03-08T21:16:08.109Z,1.50
2018-03-08T21:18:35.802Z,1.73
2018-03-08T21:21:03.415Z,14.10
2018-03-08T21:23:31.072Z,5.40
2018-03-08T21:25:58.741Z,0.90
2018-03-08T21:28:26.392Z,1.50
2018-03-08T21:30:53.998Z,10.00
2018-03-08T21:33:21.655Z,18.77
2018-03-08T21:35:49.275Z,2.10
2018-03-08T21:38:16.911Z,0.80
2018-03-08T21:40:44.517Z,0.90
2018-03-08T21:43:12.165Z,0.53
2018-03-08T21:45:39.784Z,15.57
2018-03-08T21:48:07.437Z,11.63
2018-03-08T21:50:35.040Z,1.10
2018-03-08T21:53:02.684Z,0.80
2018-03-08T21:55:30.371Z,4.73
2018-03-08T21:57:58.017Z,1.30
2018-03-08T22:00:25.608Z,1.47
2018-03-08T22:02:53.248Z,9.10
2018-03-08T22:05:20.856Z,11.03
2018-03-08T22:07:48.496Z,6.60
2018-03-08T22:10:16.116Z,6.00
2018-03-08T22:12:43.712Z,2.10
2018-03-08T22:15:11.373Z,4.33
2018-03-08T22:17:38.972Z,3.93
2018-03-08T22:20:06.625Z,1.40
2018-03-08T22:22:34.348Z,3.77
2018-03-08T22:25:02.355Z,3.90
2018-03-08T22:27:30.198Z,1.27
2018-03-08T22:29:58.027Z,14.57
2018-03-08T22:32:25.665Z,6.23
2018-03-08T22:34:53.661Z,3.67
2018-03-08T22:37:21.298Z,1.10
2018-03-08T22:39:49.397Z,1.67
2018-03-08T22:42:17.037Z,1.87
2018-03-08T22:44:44.798Z,1.80
2018-03-08T22:47:12.456Z,1.50
2018-03-08T22:49:40.411Z,1.40
2018-03-08T22:52:08.033Z,1.80
2018-03-08T22:54:36.059Z,2.20
2018-03-08T22:57:03.684Z,1.63
2018-03-08T22:59:31.593Z,1.73
2018-03-08T23:02:14.886Z,1.50
2018-03-08T23:04:42.938Z,1.20
2018-03-08T23:07:10.788Z,1.60
2018-03-08T23:09:38.488Z,1.23
2018-03-08T23:12:06.119Z,1.47
2018-03-08T23:14:34.152Z,1.93
2018-03-08T23:17:01.854Z,1.17
2018-03-08T23:19:29.516Z,1.70
2018-03-08T23:21:57.248Z,1.33
2018-03-08T23:24:24.908Z,1.37
2018-03-08T23:26:52.561Z,1.60
2018-03-08T23:29:20.481Z,1.60
2018-03-08T23:31:48.099Z,1.80
2018-03-08T23:34:15.983Z,1.70
2018-03-08T23:36:43.584Z,1.77
2018-03-08T23:39:11.221Z,1.57
2018-03-08T23:41:38.864Z,2.13
2018-03-08T23:44:06.504Z,2.10
2018-03-08T23:46:34.278Z,2.30
2018-03-08T23:49:01.984Z,2.10
2018-03-08T23:51:29.603Z,2.03
2018-03-08T23:53:57.243Z,2.30
2018-03-08T23:56:24.865Z,2.00
2018-03-08T23:58:52.536Z,1.50
